createdAt,value
2022-10-06T00:01:07.070Z,9.40
2022-10-06T00:03:34.255Z,9.40
2022-10-06T00:06:03.747Z,9.40
2022-10-06T00:08:32.628Z,9.40
2022-10-06T00:10:59.421Z,9.40
2022-10-06T00:13:27.564Z,9.30
2022-10-06T00:15:54.548Z,9.40
2022-10-06T00:18:21.420Z,9.30
2022-10-06T00:21:00.390Z,9.30
2022-10-06T00:23:28.952Z,9.30
2022-10-06T00:25:56.089Z,9.30
2022-10-06T00:28:23.321Z,9.30
2022-10-06T00:30:53.221Z,9.30
2022-10-06T00:33:20.477Z,9.20
2022-10-06T00:35:48.001Z,9.10
2022-10-06T00:38:17.350Z,9.10
2022-10-06T00:40:49.593Z,9.00
2022-10-06T00:43:44.193Z,9.00
2022-10-06T00:46:35.028Z,9.00
2022-10-06T00:49:28.550Z,8.90
2022-10-06T00:52:04.732Z,8.90
2022-10-06T00:54:33.464Z,8.90
2022-10-06T00:57:00.857Z,8.90
2022-10-06T00:59:27.627Z,8.90
2022-10-06T01:02:02.028Z,8.80
2022-10-06T01:04:33.945Z,8.80
2022-10-06T01:07:01.691Z,8.70
2022-10-06T01:09:30.590Z,8.70
2022-10-06T01:12:01.267Z,8.70
2022-10-06T01:14:28.704Z,8.70
2022-10-06T01:17:07.658Z,8.70
2022-10-06T01:20:00.106Z,8.70
2022-10-06T01:22:31.119Z,8.60
2022-10-06T01:24:58.384Z,8.50
2022-10-06T01:27:27.777Z,8.50
2022-10-06T01:29:56.393Z,8.50
2022-10-06T01:32:25.770Z,8.50
2022-10-06T01:34:52.557Z,8.40
2022-10-06T01:37:19.363Z,8.40
2022-10-06T01:39:46.180Z,8.40
2022-10-06T01:42:12.940Z,8.40
2022-10-06T01:44:39.781Z,8.50
2022-10-06T01:47:07.170Z,8.40
2022-10-06T01:49:34.551Z,8.30
2022-10-06T01:52:02.289Z,8.40
2022-10-06T01:54:29.133Z,8.30
2022-10-06T01:56:55.992Z,8.40
2022-10-06T01:59:23.104Z,8.50
2022-10-06T02:01:50.254Z,8.40
2022-10-06T02:04:17.698Z,8.40
2022-10-06T02:06:44.636Z,8.40
2022-10-06T02:09:11.942Z,8.40
2022-10-06T02:11:38.753Z,8.50
2022-10-06T02:14:05.560Z,8.40
2022-10-06T02:16:32.338Z,8.40
2022-10-06T02:18:59.130Z,8.40
2022-10-06T02:21:25.895Z,8.40
2022-10-06T02:23:52.757Z,8.30
2022-10-06T02:26:19.558Z,8.30
2022-10-06T02:28:47.427Z,8.30
2022-10-06T02:31:15.001Z,8.30
2022-10-06T02:33:42.381Z,8.30
2022-10-06T02:36:14.699Z,8.30
2022-10-06T02:38:41.649Z,8.30
2022-10-06T02:41:10.909Z,8.20
2022-10-06T02:43:38.057Z,8.30
2022-10-06T02:46:13.791Z,8.30
2022-10-06T02:48:41.362Z,8.30
2022-10-06T02:51:13.781Z,8.30
2022-10-06T02:53:42.741Z,8.20
2022-10-06T02:56:18.045Z,8.20
2022-10-06T02:58:47.785Z,8.20
2022-10-06T03:01:24.344Z,8.20
2022-10-06T03:03:51.316Z,8.30
2022-10-06T03:06:23.057Z,8.30
2022-10-06T03:08:58.500Z,8.30
2022-10-06T03:11:35.328Z,8.40
2022-10-06T03:14:02.401Z,8.40
2022-10-06T03:16:33.514Z,8.40
2022-10-06T03:19:01.438Z,8.40
2022-10-06T03:21:31.735Z,8.50
2022-10-06T03:23:59.517Z,8.50
2022-10-06T03:26:37.974Z,8.40
2022-10-06T03:29:10.491Z,8.40
2022-10-06T03:31:39.014Z,8.30
2022-10-06T03:34:06.432Z,8.30
2022-10-06T03:36:34.702Z,8.30
2022-10-06T03:39:03.936Z,8.20
2022-10-06T03:41:34.538Z,8.30
2022-10-06T03:44:02.034Z,8.30
2022-10-06T03:46:32.314Z,8.20
2022-10-06T03:49:00.547Z,8.20
2022-10-06T03:51:33.366Z,8.20
2022-10-06T03:54:00.652Z,8.20
2022-10-06T03:56:34.291Z,8.20
2022-10-06T03:59:07.415Z,8.20
2022-10-06T04:01:42.505Z,8.20
2022-10-06T04:04:10.878Z,8.20
2022-10-06T04:06:40.765Z,8.10
2022-10-06T04:09:15.384Z,8.10
2022-10-06T04:11:44.634Z,8.20
2022-10-06T04:14:15.207Z,8.10
2022-10-06T04:16:48.865Z,8.00
2022-10-06T04:19:17.331Z,8.00
2022-10-06T04:21:46.802Z,8.00
2022-10-06T04:24:13.895Z,8.00
2022-10-06T04:26:46.492Z,7.90
2022-10-06T04:29:14.485Z,8.00
2022-10-06T04:31:42.537Z,7.90
2022-10-06T04:34:13.163Z,8.00
2022-10-06T04:36:42.536Z,8.00
2022-10-06T04:39:11.740Z,8.00
2022-10-06T04:41:41.544Z,8.00
2022-10-06T04:44:10.223Z,8.10
2022-10-06T04:46:43.090Z,8.00
2022-10-06T04:49:16.236Z,8.10
2022-10-06T04:51:47.992Z,8.20
2022-10-06T04:54:14.785Z,8.30
2022-10-06T04:56:41.672Z,8.20
2022-10-06T04:59:08.479Z,8.10
2022-10-06T05:01:37.402Z,8.10
2022-10-06T05:04:06.243Z,8.10
2022-10-06T05:06:36.935Z,8.00
2022-10-06T05:09:15.735Z,8.00
2022-10-06T05:11:42.751Z,8.00
2022-10-06T05:14:09.525Z,8.00
2022-10-06T05:16:39.566Z,8.00
2022-10-06T05:19:08.120Z,7.90
2022-10-06T05:21:35.497Z,7.90
2022-10-06T05:24:03.423Z,7.90
2022-10-06T05:26:33.472Z,7.80
2022-10-06T05:29:00.348Z,7.80
2022-10-06T05:31:29.941Z,7.90
2022-10-06T05:33:58.113Z,7.90
2022-10-06T05:36:29.743Z,7.90
2022-10-06T05:38:58.154Z,7.90
2022-10-06T05:41:30.981Z,8.00
2022-10-06T05:43:59.012Z,8.00
2022-10-06T05:46:29.671Z,8.10
2022-10-06T05:49:00.234Z,8.10
2022-10-06T05:51:31.168Z,8.20
2022-10-06T05:54:05.472Z,8.30
2022-10-06T05:56:36.052Z,8.30
2022-10-06T05:59:03.914Z,8.40
2022-10-06T06:01:35.857Z,8.40
2022-10-06T06:04:06.549Z,8.50
2022-10-06T06:06:43.348Z,8.70
2022-10-06T06:09:18.797Z,8.80
2022-10-06T06:11:48.228Z,9.00
2022-10-06T06:14:19.530Z,9.20
2022-10-06T06:16:46.673Z,9.50
2022-10-06T06:19:14.370Z,9.80
2022-10-06T06:21:41.336Z,10.00
2022-10-06T06:24:08.191Z,10.10
2022-10-06T06:26:37.456Z,10.20
2022-10-06T06:29:05.381Z,10.40
2022-10-06T06:31:37.311Z,10.70
2022-10-06T06:34:06.701Z,10.80
2022-10-06T06:36:40.568Z,11.00
2022-10-06T06:39:10.770Z,11.10
2022-10-06T06:41:41.780Z,11.20
2022-10-06T06:44:11.383Z,11.40
2022-10-06T06:46:39.897Z,11.50
2022-10-06T06:49:07.518Z,11.80
2022-10-06T06:51:37.597Z,12.00
2022-10-06T06:54:05.182Z,12.20
2022-10-06T06:56:36.944Z,12.50
2022-10-06T06:59:10.476Z,12.70
2022-10-06T07:01:39.633Z,13.10
2022-10-06T07:04:06.528Z,13.30
2022-10-06T07:06:37.037Z,13.50
2022-10-06T07:09:04.314Z,13.60
2022-10-06T07:11:37.898Z,13.90
2022-10-06T07:14:09.171Z,14.10
2022-10-06T07:16:54.950Z,14.40
2022-10-06T07:19:57.254Z,14.70
2022-10-06T07:22:45.049Z,14.90
2022-10-06T07:25:26.235Z,15.20
2022-10-06T07:27:54.040Z,15.50
2022-10-06T07:30:26.301Z,15.80
2022-10-06T07:32:53.777Z,15.90
2022-10-06T07:35:22.697Z,16.20
2022-10-06T07:37:53.093Z,16.50
2022-10-06T07:40:20.150Z,16.70
2022-10-06T07:42:51.703Z,17.00
2022-10-06T07:45:41.498Z,17.30
2022-10-06T07:48:15.357Z,17.70
2022-10-06T07:50:44.163Z,18.20
2022-10-06T07:53:12.009Z,18.40
2022-10-06T07:55:41.943Z,18.70
2022-10-06T07:58:15.370Z,19.10
2022-10-06T08:00:43.974Z,19.50
2022-10-06T08:03:14.516Z,19.30
2022-10-06T08:05:41.412Z,19.40
2022-10-06T08:08:08.281Z,19.50
2022-10-06T08:10:35.077Z,19.80
2022-10-06T08:13:05.850Z,19.70
2022-10-06T08:15:33.151Z,20.20
2022-10-06T08:18:01.863Z,20.70
2022-10-06T08:20:28.818Z,21.00
2022-10-06T08:22:55.729Z,21.20
2022-10-06T08:25:22.556Z,21.40
2022-10-06T08:27:53.449Z,22.00
2022-10-06T08:30:20.728Z,22.30
2022-10-06T08:32:47.655Z,22.80
2022-10-06T08:35:14.563Z,23.00
2022-10-06T08:37:41.499Z,23.40
2022-10-06T08:40:13.464Z,23.70
2022-10-06T08:42:48.765Z,23.20
2022-10-06T08:45:24.544Z,22.80
2022-10-06T08:47:56.510Z,22.30
2022-10-06T08:50:28.619Z,22.40
2022-10-06T08:53:15.478Z,22.70
2022-10-06T08:55:53.661Z,22.90
2022-10-06T08:58:35.314Z,22.50
2022-10-06T09:01:18.711Z,22.30
2022-10-06T09:03:49.090Z,21.80
2022-10-06T09:06:43.754Z,21.30
2022-10-06T09:09:25.352Z,21.20
2022-10-06T09:12:26.020Z,21.40
2022-10-06T09:15:09.183Z,22.00
2022-10-06T09:17:42.476Z,22.50
2022-10-06T09:20:20.789Z,22.70
2022-10-06T09:22:51.213Z,22.50
2022-10-06T09:25:22.536Z,22.50
2022-10-06T09:27:55.042Z,21.80
2022-10-06T09:30:22.670Z,22.10
2022-10-06T09:33:00.029Z,21.90
2022-10-06T09:35:30.104Z,21.80
2022-10-06T09:38:08.250Z,21.40
2022-10-06T09:40:51.267Z,21.10
2022-10-06T09:43:29.240Z,21.20
2022-10-06T09:46:33.026Z,21.80
2022-10-06T09:49:20.666Z,22.00
2022-10-06T09:52:11.779Z,22.30
2022-10-06T09:54:41.786Z,22.40
2022-10-06T09:57:26.263Z,23.20
2022-10-06T09:59:53.713Z,22.90
2022-10-06T10:02:39.645Z,23.10
2022-10-06T10:05:22.443Z,24.00
2022-10-06T10:08:26.168Z,24.40
2022-10-06T10:11:41.809Z,23.80
2022-10-06T10:14:20.253Z,23.90
2022-10-06T10:16:52.348Z,23.40
2022-10-06T10:19:36.373Z,23.20
2022-10-06T10:22:04.041Z,23.10
2022-10-06T10:25:28.200Z,22.90
2022-10-06T10:28:19.608Z,22.50
2022-10-06T10:30:52.115Z,22.50
2022-10-06T10:33:49.603Z,22.50
2022-10-06T10:36:48.286Z,22.50
2022-10-06T10:39:29.608Z,22.30
2022-10-06T10:42:02.743Z,22.50
2022-10-06T10:44:37.880Z,22.60
2022-10-06T10:47:43.293Z,22.90
2022-10-06T10:50:59.846Z,22.70
2022-10-06T10:53:55.042Z,23.00
2022-10-06T10:56:24.389Z,23.70
2022-10-06T10:59:04.268Z,24.20
2022-10-06T11:01:54.190Z,24.40
2022-10-06T11:04:21.040Z,24.10
2022-10-06T11:07:23.349Z,24.70
2022-10-06T11:10:17.109Z,24.80
2022-10-06T11:13:02.157Z,24.60
2022-10-06T11:16:16.164Z,23.80
2022-10-06T11:18:44.028Z,23.00
2022-10-06T11:21:18.910Z,22.60
2022-10-06T11:24:19.245Z,22.50
2022-10-06T11:27:36.336Z,22.90
2022-10-06T11:30:20.388Z,23.40
2022-10-06T11:33:03.337Z,23.70
2022-10-06T11:35:37.159Z,24.40
2022-10-06T11:38:35.060Z,25.50
2022-10-06T11:41:27.113Z,25.10
2022-10-06T11:44:06.985Z,24.40
2022-10-06T11:46:49.255Z,24.00
2022-10-06T11:49:33.507Z,23.50
2022-10-06T11:52:08.365Z,23.30
2022-10-06T11:54:44.652Z,23.20
2022-10-06T11:57:29.435Z,23.00
2022-10-06T12:00:17.327Z,22.80
2022-10-06T12:02:46.823Z,22.80
2022-10-06T12:05:54.041Z,24.00
2022-10-06T12:08:07.234Z,24.10
2022-10-06T12:10:35.179Z,23.90
2022-10-06T12:19:51.033Z,23.20
2022-10-06T12:22:31.265Z,22.60
2022-10-06T12:25:25.092Z,22.90
2022-10-06T12:28:22.281Z,22.70
2022-10-06T12:31:20.697Z,23.00
2022-10-06T12:33:48.302Z,22.80
2022-10-06T12:36:20.235Z,22.70
2022-10-06T12:39:04.774Z,22.50
2022-10-06T12:42:07.133Z,22.30
2022-10-06T12:44:52.808Z,22.50
2022-10-06T12:47:32.575Z,23.00
2022-10-06T12:50:17.101Z,23.20
2022-10-06T12:52:48.103Z,23.30
2022-10-06T12:55:51.774Z,23.20
2022-10-06T12:58:29.804Z,23.40
2022-10-06T13:01:10.360Z,23.70
2022-10-06T13:03:38.521Z,23.80
2022-10-06T13:06:08.504Z,23.50
2022-10-06T13:08:38.721Z,24.40
2022-10-06T13:11:27.220Z,25.60
2022-10-06T13:14:08.316Z,27.50
2022-10-06T13:16:40.665Z,28.50
2022-10-06T13:19:23.349Z,28.10
2022-10-06T13:21:50.320Z,28.10
2022-10-06T13:24:26.677Z,27.70
2022-10-06T13:26:54.099Z,27.00
2022-10-06T13:29:25.883Z,27.30
2022-10-06T13:31:55.158Z,27.80
2022-10-06T13:34:32.334Z,27.80
2022-10-06T13:37:00.117Z,28.80
2022-10-06T13:39:32.372Z,29.30
2022-10-06T13:42:04.760Z,28.30
2022-10-06T13:44:35.592Z,28.00
2022-10-06T13:47:07.553Z,27.40
2022-10-06T13:49:47.032Z,26.50
2022-10-06T13:52:22.449Z,25.40
2022-10-06T13:54:57.958Z,25.00
2022-10-06T13:58:05.221Z,26.30
2022-10-06T14:01:00.520Z,27.50
2022-10-06T14:06:18.195Z,30.30
2022-10-06T14:08:57.477Z,31.00
2022-10-06T14:11:29.496Z,30.30
2022-10-06T14:13:58.347Z,29.10
2022-10-06T14:16:26.753Z,28.00
2022-10-06T14:19:03.011Z,27.20
2022-10-06T14:21:36.411Z,26.40
2022-10-06T14:24:07.762Z,25.90
2022-10-06T14:26:37.439Z,26.00
2022-10-06T14:29:04.755Z,27.00
2022-10-06T14:31:33.863Z,28.00
2022-10-06T14:34:02.736Z,29.20
2022-10-06T14:36:36.794Z,28.60
2022-10-06T14:39:06.301Z,28.50
2022-10-06T14:41:33.376Z,27.60
2022-10-06T14:44:08.605Z,26.90
2022-10-06T14:46:37.002Z,25.90
2022-10-06T14:49:13.370Z,25.80
2022-10-06T14:51:42.542Z,25.80
2022-10-06T14:54:10.481Z,25.60
2022-10-06T14:56:39.012Z,25.20
2022-10-06T14:59:09.547Z,25.30
2022-10-06T15:01:38.558Z,25.00
2022-10-06T15:04:12.492Z,25.50
2022-10-06T15:06:58.689Z,26.30
2022-10-06T15:09:26.413Z,27.40
2022-10-06T15:11:54.126Z,27.90
2022-10-06T15:14:24.964Z,27.60
2022-10-06T15:16:52.105Z,26.30
2022-10-06T15:19:18.955Z,25.20
2022-10-06T15:21:46.037Z,24.40
2022-10-06T15:24:18.392Z,23.70
2022-10-06T15:27:05.591Z,23.30
2022-10-06T15:29:34.801Z,22.90
2022-10-06T15:32:03.356Z,22.60
2022-10-06T15:34:34.081Z,22.40
2022-10-06T15:37:01.270Z,22.10
2022-10-06T15:39:31.021Z,21.80
2022-10-06T15:41:58.678Z,21.60
2022-10-06T15:44:25.903Z,21.30
2022-10-06T15:46:55.071Z,21.00
2022-10-06T15:49:27.231Z,20.80
2022-10-06T15:52:03.122Z,20.50
2022-10-06T15:54:46.409Z,20.40
2022-10-06T15:57:18.098Z,20.20
2022-10-06T15:59:47.341Z,20.00
2022-10-06T16:02:17.035Z,19.90
2022-10-06T16:04:44.746Z,19.90
2022-10-06T16:07:17.447Z,19.80
2022-10-06T16:09:50.674Z,19.60
2022-10-06T16:12:22.844Z,19.50
2022-10-06T16:14:49.730Z,19.40
2022-10-06T16:17:17.777Z,19.30
2022-10-06T16:19:44.788Z,19.10
2022-10-06T16:22:14.782Z,19.00
2022-10-06T16:24:41.665Z,18.80
2022-10-06T16:27:14.111Z,18.70
2022-10-06T16:29:41.181Z,18.50
2022-10-06T16:32:08.190Z,18.40
2022-10-06T16:34:35.014Z,18.10
2022-10-06T16:37:01.822Z,18.00
2022-10-06T16:39:28.696Z,17.90
2022-10-06T16:41:55.735Z,17.70
2022-10-06T16:44:22.603Z,17.50
2022-10-06T16:46:49.449Z,17.30
2022-10-06T16:49:16.332Z,17.20
2022-10-06T16:51:45.992Z,17.00
2022-10-06T16:54:15.232Z,16.90
2022-10-06T16:56:45.293Z,16.80
2022-10-06T16:59:18.630Z,16.70
2022-10-06T17:01:46.791Z,16.60
2022-10-06T17:04:21.429Z,16.50
2022-10-06T17:06:56.885Z,16.40
2022-10-06T17:09:27.020Z,16.20
2022-10-06T17:12:03.552Z,16.20
2022-10-06T17:14:33.145Z,16.00
2022-10-06T17:17:00.160Z,15.90
2022-10-06T17:19:29.359Z,15.80
2022-10-06T17:21:59.413Z,15.80
2022-10-06T17:24:28.991Z,15.70
2022-10-06T17:26:57.356Z,15.60
2022-10-06T17:29:25.101Z,15.50
2022-10-06T17:31:58.808Z,15.50
2022-10-06T17:34:31.804Z,15.50
2022-10-06T17:37:02.173Z,15.30
2022-10-06T17:39:29.194Z,15.30
2022-10-06T17:41:56.067Z,15.20
2022-10-06T17:44:26.760Z,15.20
2022-10-06T17:47:00.146Z,15.10
2022-10-06T17:49:29.842Z,15.10
2022-10-06T17:51:56.715Z,15.00
2022-10-06T17:54:26.719Z,14.90
2022-10-06T17:56:56.927Z,14.90
2022-10-06T17:59:30.333Z,14.80
2022-10-06T18:02:02.463Z,14.70
2022-10-06T18:04:30.030Z,14.70
2022-10-06T18:06:57.345Z,14.60
2022-10-06T18:09:24.421Z,14.60
2022-10-06T18:11:59.813Z,14.50
2022-10-06T18:14:32.227Z,14.50
2022-10-06T18:17:02.552Z,14.50
2022-10-06T18:19:35.552Z,14.50
2022-10-06T18:22:10.004Z,14.50
2022-10-06T18:24:37.658Z,14.40
2022-10-06T18:27:06.218Z,14.40
2022-10-06T18:29:36.147Z,14.30
2022-10-06T18:32:40.531Z,14.40
2022-10-06T18:37:38.393Z,14.30
2022-10-06T18:40:08.571Z,14.30
2022-10-06T18:42:35.843Z,14.20
2022-10-06T18:45:21.342Z,14.20
2022-10-06T18:48:06.585Z,14.20
2022-10-06T18:50:34.983Z,14.10
2022-10-06T18:53:03.975Z,14.00
2022-10-06T18:55:31.566Z,14.00
2022-10-06T18:57:58.724Z,13.90
2022-10-06T19:00:25.902Z,13.90
2022-10-06T19:02:55.274Z,13.80
2022-10-06T19:05:23.366Z,13.80
2022-10-06T19:07:53.775Z,13.70
2022-10-06T19:10:20.731Z,13.70
2022-10-06T19:12:48.341Z,13.70
2022-10-06T19:15:20.349Z,13.60
2022-10-06T19:17:49.083Z,13.60
2022-10-06T19:20:16.283Z,13.70
2022-10-06T19:22:43.388Z,13.60
2022-10-06T19:25:11.122Z,13.50
2022-10-06T19:27:37.937Z,13.40
2022-10-06T19:30:06.126Z,13.40
2022-10-06T19:32:33.227Z,13.20
2022-10-06T19:35:00.343Z,13.20
2022-10-06T19:37:30.400Z,13.20
2022-10-06T19:39:57.533Z,13.10
2022-10-06T19:42:43.427Z,13.10
2022-10-06T19:45:12.149Z,13.10
2022-10-06T19:47:40.130Z,13.00
2022-10-06T19:50:12.216Z,13.00
2022-10-06T19:52:40.996Z,12.90
2022-10-06T19:55:08.038Z,12.80
2022-10-06T19:57:36.631Z,12.80
2022-10-06T20:00:06.399Z,12.80
2022-10-06T20:02:33.177Z,12.80
2022-10-06T20:04:59.962Z,12.60
2022-10-06T20:07:27.821Z,12.70
2022-10-06T20:09:55.543Z,12.70
2022-10-06T20:12:25.187Z,12.70
2022-10-06T20:14:55.854Z,12.70
2022-10-06T20:17:23.074Z,12.60
2022-10-06T20:19:55.117Z,12.60
2022-10-06T20:22:24.754Z,12.50
2022-10-06T20:24:52.157Z,12.50
2022-10-06T20:27:19.296Z,12.50
2022-10-06T20:29:46.496Z,12.50
2022-10-06T20:32:14.119Z,12.50
2022-10-06T20:34:41.901Z,12.40
2022-10-06T20:37:08.740Z,12.40
2022-10-06T20:39:53.912Z,12.40
2022-10-06T20:42:21.653Z,12.40
2022-10-06T20:44:49.148Z,12.40
2022-10-06T20:47:18.913Z,12.30
2022-10-06T20:49:45.772Z,12.30
2022-10-06T20:52:15.204Z,12.30
2022-10-06T20:54:42.239Z,12.30
2022-10-06T20:57:09.479Z,12.30
2022-10-06T20:59:37.262Z,12.20
2022-10-06T21:02:05.738Z,12.20
2022-10-06T21:04:34.670Z,12.30
2022-10-06T21:07:03.850Z,12.30
2022-10-06T21:09:30.902Z,12.10
2022-10-06T21:11:57.828Z,12.10
2022-10-06T21:14:24.791Z,12.10
2022-10-06T21:16:52.647Z,11.90
2022-10-06T21:19:19.949Z,11.80
2022-10-06T21:21:51.660Z,11.80
2022-10-06T21:24:19.286Z,11.80
2022-10-06T21:26:46.195Z,11.70
2022-10-06T21:29:15.193Z,11.70
2022-10-06T21:31:43.144Z,11.60
2022-10-06T21:34:10.447Z,11.70
2022-10-06T21:36:38.103Z,11.70
2022-10-06T21:39:05.838Z,11.70
2022-10-06T21:41:38.638Z,11.70
2022-10-06T21:44:17.157Z,11.70
2022-10-06T21:46:50.685Z,11.70
2022-10-06T21:49:21.383Z,11.60
2022-10-06T21:51:51.634Z,11.70
2022-10-06T21:54:20.844Z,11.50
2022-10-06T21:56:47.908Z,11.60
2022-10-06T21:59:14.951Z,11.50
2022-10-06T22:01:44.981Z,11.60
2022-10-06T22:04:14.245Z,11.60
2022-10-06T22:06:43.266Z,11.60
2022-10-06T22:09:14.558Z,11.50
2022-10-06T22:11:42.439Z,11.40
2022-10-06T22:14:13.547Z,11.50
2022-10-06T22:16:40.395Z,11.30
2022-10-06T22:19:10.384Z,11.30
2022-10-06T22:21:41.426Z,11.30
2022-10-06T22:24:12.178Z,11.40
2022-10-06T22:26:40.851Z,11.50
2022-10-06T22:29:11.346Z,11.50
2022-10-06T22:31:41.088Z,11.60
2022-10-06T22:34:10.924Z,11.70
2022-10-06T22:36:37.835Z,11.70
2022-10-06T22:39:04.831Z,11.80
2022-10-06T22:41:31.863Z,11.90
2022-10-06T22:44:00.039Z,12.00
2022-10-06T22:46:30.222Z,12.10
2022-10-06T22:48:57.667Z,12.10
2022-10-06T22:51:25.155Z,12.20
2022-10-06T22:53:58.614Z,12.20
2022-10-06T22:56:27.741Z,12.30
2022-10-06T22:58:54.908Z,12.30
2022-10-06T23:01:21.811Z,12.20
2022-10-06T23:03:48.733Z,12.20
2022-10-06T23:06:17.415Z,12.30
2022-10-06T23:08:44.600Z,12.20
2022-10-06T23:11:18.963Z,12.20
2022-10-06T23:13:46.459Z,12.20
2022-10-06T23:16:16.159Z,12.20
2022-10-06T23:18:44.781Z,12.20
2022-10-06T23:21:29.794Z,12.30
2022-10-06T23:23:59.990Z,12.30
2022-10-06T23:26:27.383Z,12.30
2022-10-06T23:28:59.522Z,12.30
2022-10-06T23:31:27.708Z,12.20
2022-10-06T23:33:54.975Z,12.10
2022-10-06T23:36:21.798Z,12.20
2022-10-06T23:38:48.607Z,12.20
2022-10-06T23:41:15.934Z,12.00
2022-10-06T23:43:42.934Z,12.00
2022-10-06T23:46:09.954Z,12.00
2022-10-06T23:48:37.355Z,12.00
2022-10-06T23:51:11.487Z,12.00
2022-10-06T23:53:38.944Z,11.90
2022-10-06T23:56:06.580Z,11.80
2022-10-06T23:58:33.848Z,11.80
